Time;durP1;ratioP1;P1;durP2;ratioP2;P2;SDS_P1;SDS_P2;PMS_P1;PMS_P2;Temp;Humidity;BMP_temperature;BMP_pressure;BME280_temperature;BME280_humidity;BME280_pressure;Samples;Min_cycle;Max_cycle;Signal;HPM_P1;HPM_P2
2022/05/06 00:01:57;;;;;;;3.92;3.17;;;;;;;9.79;56.04;101599.09;5080354;28;20119;-27
2022/05/06 00:04:24;;;;;;;3.67;3.22;;;;;;;9.75;55.98;101599.91;5084037;28;20670;-24
2022/05/06 00:06:49;;;;;;;3.78;3.13;;;;;;;9.71;56.10;101603.41;5084206;28;20028;-24
2022/05/06 00:09:15;;;;;;;6.80;3.40;;;;;;;9.69;56.02;101602.50;5082822;28;20032;-25
2022/05/06 00:11:40;;;;;;;3.78;3.47;;;;;;;9.66;56.00;101605.97;5085812;28;20742;-27
2022/05/06 00:14:05;;;;;;;3.38;3.08;;;;;;;9.63;56.25;101600.69;5082411;28;20599;-30
2022/05/06 00:16:31;;;;;;;3.30;2.88;;;;;;;9.60;56.25;101608.53;5080837;28;20498;-24
2022/05/06 00:18:56;;;;;;;3.90;3.50;;;;;;;9.57;56.35;101606.78;5075768;28;20024;-25
2022/05/06 00:21:21;;;;;;;3.50;3.20;;;;;;;9.51;56.21;101601.47;5064748;28;20550;-26
2022/05/06 00:23:47;;;;;;;3.67;3.30;;;;;;;9.50;56.40;101612.84;5081473;28;20023;-27
2022/05/06 00:26:12;;;;;;;5.97;3.42;;;;;;;9.47;56.50;101604.94;5084548;28;20024;-25
2022/05/06 00:28:38;;;;;;;3.60;3.28;;;;;;;9.45;56.27;101609.28;5079740;28;20490;-25
2022/05/06 00:31:04;;;;;;;3.58;3.28;;;;;;;9.40;56.24;101609.22;5079986;28;20029;-26
2022/05/06 00:33:30;;;;;;;3.90;3.50;;;;;;;9.36;56.32;101608.31;5079233;28;20377;-25
2022/05/06 00:36:01;;;;;;;4.65;3.75;;;;;;;9.33;56.52;101613.53;5078422;28;20040;-30
2022/05/06 00:38:26;;;;;;;3.88;3.40;;;;;;;9.32;56.42;101613.53;5098460;28;20549;-25
2022/05/06 00:40:52;;;;;;;5.25;3.75;;;;;;;9.28;56.42;101612.63;5081943;28;20048;-26
2022/05/06 00:43:18;;;;;;;4.55;3.28;;;;;;;9.26;56.61;101613.44;5083403;28;20024;-27
2022/05/06 00:45:49;;;;;;;5.47;3.60;;;;;;;9.23;56.51;101612.56;5081935;28;20033;-34
2022/05/06 00:48:15;;;;;;;4.07;3.67;;;;;;;9.20;56.60;101617.78;5077992;28;20111;-26
2022/05/06 00:50:44;;;;;;;4.05;3.35;;;;;;;9.18;56.88;101616.00;5078290;28;20046;-27
2022/05/06 00:53:09;;;;;;;4.65;3.88;;;;;;;9.14;56.75;101609.81;5096168;28;20441;-36
2022/05/06 00:55:38;;;;;;;3.60;3.03;;;;;;;9.11;56.85;101604.53;5072954;28;20028;-25
2022/05/06 00:58:04;;;;;;;4.70;3.17;;;;;;;9.06;56.65;101607.09;5078885;28;20553;-32
2022/05/06 01:00:29;;;;;;;3.95;3.40;;;;;;;9.01;57.02;101606.16;5081658;28;20024;-26
2022/05/06 01:02:55;;;;;;;3.40;3.10;;;;;;;9.02;56.66;101612.28;5079715;28;20192;-26
2022/05/06 01:05:20;;;;;;;3.80;3.30;;;;;;;8.98;56.71;101614.00;5078262;28;20024;-25
2022/05/06 01:07:47;;;;;;;4.05;3.65;;;;;;;8.96;56.76;101618.34;5077434;28;20028;-25
2022/05/06 01:10:12;;;;;;;3.67;3.00;;;;;;;8.92;56.70;101616.56;5082120;28;20091;-25
2022/05/06 01:12:38;;;;;;;3.33;2.95;;;;;;;8.87;56.84;101615.63;5083114;28;20564;-25
2022/05/06 01:15:26;;;;;;;3.60;3.22;;;;;;;8.83;56.79;101618.22;5080779;28;20024;-27
2022/05/06 01:17:53;;;;;;;4.68;3.25;;;;;;;8.80;56.70;101612.91;5080229;28;20019;-31
2022/05/06 01:20:20;;;;;;;4.05;2.75;;;;;;;8.77;57.09;101618.13;5081851;28;20080;-25
2022/05/06 01:22:50;;;;;;;3.70;3.30;;;;;;;8.73;57.13;101611.94;5083510;28;20028;-25
2022/05/06 01:25:16;;;;;;;3.70;3.03;;;;;;;8.69;57.14;101622.38;5082379;28;20527;-25
2022/05/06 01:27:51;;;;;;;3.70;3.22;;;;;;;8.64;57.37;101611.78;5081365;28;20081;-25
2022/05/06 01:30:36;;;;;;;3.70;3.40;;;;;;;8.63;56.90;101611.81;5077927;28;20024;-25
2022/05/06 01:33:03;;;;;;;6.80;3.22;;;;;;;8.60;56.84;101617.88;5076978;28;20059;-25
2022/05/06 01:35:30;;;;;;;3.50;3.20;;;;;;;8.57;57.32;101617.84;5084164;28;20032;-25
2022/05/06 01:37:59;;;;;;;3.85;3.53;;;;;;;8.51;56.98;101621.25;5076782;28;20127;-25
2022/05/06 01:40:26;;;;;;;3.65;3.10;;;;;;;8.48;57.19;101615.94;5075704;28;20028;-25
2022/05/06 01:42:55;;;;;;;3.45;2.90;;;;;;;8.45;57.13;101626.41;5078645;28;20077;-27
2022/05/06 01:45:22;;;;;;;3.28;2.97;;;;;;;8.41;57.36;101620.19;5081734;28;20085;-27
2022/05/06 01:47:47;;;;;;;3.30;3.00;;;;;;;8.37;57.20;101634.16;5078781;28;21569;-25
2022/05/06 01:50:13;;;;;;;4.13;3.53;;;;;;;8.33;57.52;101630.63;5083601;28;20024;-25
2022/05/06 01:52:40;;;;;;;5.43;3.65;;;;;;;8.32;57.68;101638.47;5075604;28;20036;-27
2022/05/06 01:55:08;;;;;;;3.72;3.33;;;;;;;8.29;57.68;101641.03;5079981;28;20130;-32
2022/05/06 01:57:33;;;;;;;3.50;3.20;;;;;;;8.24;57.73;101627.84;5073431;28;20388;-26
2022/05/06 01:59:59;;;;;;;4.57;3.13;;;;;;;8.21;57.51;101638.31;5078864;28;20028;-25
2022/05/06 02:02:24;;;;;;;3.60;3.30;;;;;;;8.18;57.69;101635.63;5076761;28;20036;-25
2022/05/06 02:07:33;;;;;;;4.88;3.13;;;;;;;8.13;57.85;101632.06;5079586;28;20143;-26
2022/05/06 02:09:59;;;;;;;4.80;3.28;;;;;;;8.08;57.84;101622.31;5074865;28;20210;-28
2022/05/06 02:12:25;;;;;;;4.10;3.25;;;;;;;8.06;57.73;101628.41;5080966;28;20020;-25
2022/05/06 02:14:50;;;;;;;3.67;3.30;;;;;;;8.03;57.71;101629.25;5075646;28;20041;-25
2022/05/06 02:17:16;;;;;;;3.78;3.35;;;;;;;8.00;57.79;101623.94;5074703;28;20016;-28
2022/05/06 02:19:42;;;;;;;4.40;3.45;;;;;;;7.96;57.98;101617.75;5081830;28;20069;-25
2022/05/06 02:22:07;;;;;;;4.35;3.55;;;;;;;7.95;57.90;101630.88;5080571;28;20107;-25
2022/05/06 02:24:32;;;;;;;3.45;3.15;;;;;;;7.92;57.85;101625.56;5078913;28;20131;-27
2022/05/06 02:26:58;;;;;;;3.80;3.40;;;;;;;7.90;57.97;101632.53;5080526;28;20055;-25
2022/05/06 02:29:23;;;;;;;4.07;3.67;;;;;;;7.89;58.06;101630.75;5075771;28;20077;-36
2022/05/06 02:34:32;;;;;;;4.20;3.80;;;;;;;7.83;58.58;101642.03;5078640;28;20031;-28
2022/05/06 02:36:57;;;;;;;4.25;3.85;;;;;;;7.80;58.11;101636.72;5088022;28;20024;-25
2022/05/06 02:39:23;;;;;;;4.25;3.58;;;;;;;7.78;58.22;101644.59;5076541;28;20034;-25
2022/05/06 02:41:48;;;;;;;4.75;3.78;;;;;;;7.75;58.53;101636.66;5082511;28;20028;-28
2022/05/06 02:44:13;;;;;;;3.38;2.92;;;;;;;7.73;58.32;101638.34;5082592;28;20032;-25
2022/05/06 02:46:39;;;;;;;3.92;3.60;;;;;;;7.71;58.17;101637.47;5082887;28;20357;-27
2022/05/06 02:49:04;;;;;;;3.90;3.60;;;;;;;7.67;58.40;101633.88;5078984;28;20043;-25
2022/05/06 02:51:30;;;;;;;4.63;3.58;;;;;;;7.65;58.29;101627.72;5084217;28;20492;-25
2022/05/06 02:53:58;;;;;;;3.80;3.40;;;;;;;7.63;58.50;101644.28;5081741;28;20024;-26
2022/05/06 02:56:24;;;;;;;3.90;3.50;;;;;;;7.61;58.63;101638.13;5079086;28;20027;-25
2022/05/06 02:58:50;;;;;;;4.05;3.60;;;;;;;7.57;58.65;101640.69;5075819;28;20040;-27
2022/05/06 03:01:15;;;;;;;4.18;3.63;;;;;;;7.55;58.57;101631.94;5078717;28;20060;-36
2022/05/06 03:03:40;;;;;;;4.30;3.85;;;;;;;7.55;58.68;101631.94;5080563;28;20020;-25
2022/05/06 03:06:06;;;;;;;4.00;3.50;;;;;;;7.52;58.50;101631.88;5098557;28;20109;-26
2022/05/06 03:08:31;;;;;;;4.78;3.70;;;;;;;7.51;58.65;101632.72;5098798;28;20032;-28
2022/05/06 03:10:56;;;;;;;4.10;3.67;;;;;;;7.49;58.66;101631.81;5077401;28;20035;-28
2022/05/06 03:13:22;;;;;;;4.30;3.47;;;;;;;7.46;58.63;101636.97;5081879;28;20036;-26
2022/05/06 03:15:47;;;;;;;5.75;3.70;;;;;;;7.44;58.91;101633.47;5080361;28;20039;-28
2022/05/06 03:18:12;;;;;;;4.25;3.55;;;;;;;7.41;58.58;101628.16;5086270;28;20624;-28
2022/05/06 03:20:38;;;;;;;4.25;3.83;;;;;;;7.40;58.91;101629.00;5084710;28;20016;-31
2022/05/06 03:23:04;;;;;;;4.55;4.15;;;;;;;7.37;58.73;101637.69;5087342;28;20023;-28
2022/05/06 03:25:30;;;;;;;4.45;4.05;;;;;;;7.36;58.88;101627.16;5088981;28;20073;-25
2022/05/06 03:28:07;;;;;;;4.18;3.55;;;;;;;7.33;58.87;101625.34;5083616;28;20516;-27
2022/05/06 03:30:39;;;;;;;5.82;3.63;;;;;;;7.31;58.93;101627.09;5077773;28;20112;-28
2022/05/06 03:33:04;;;;;;;4.20;3.80;;;;;;;7.28;58.90;101627.91;5083597;28;20019;-28
2022/05/06 03:35:34;;;;;;;3.75;3.40;;;;;;;7.28;59.08;101633.16;5077840;28;20082;-26
2022/05/06 03:37:59;;;;;;;3.45;3.15;;;;;;;7.25;58.63;101633.09;5084842;28;20035;-27
2022/05/06 03:40:24;;;;;;;3.58;3.28;;;;;;;7.23;58.99;101634.78;5089551;28;20024;-27
2022/05/06 03:42:50;;;;;;;4.15;3.75;;;;;;;7.21;58.62;101641.75;5084806;28;20034;-27
2022/05/06 03:45:15;;;;;;;3.72;3.35;;;;;;;7.19;59.02;101635.59;5087751;28;20031;-27
2022/05/06 03:47:41;;;;;;;3.97;3.53;;;;;;;7.16;58.92;101636.41;5084999;28;20431;-28
2022/05/06 03:52:51;;;;;;;4.25;3.85;;;;;;;7.12;59.05;101625.81;5085592;28;20038;-28
2022/05/06 03:55:16;;;;;;;3.92;3.42;;;;;;;7.10;58.88;101638.03;5081026;28;20463;-28
2022/05/06 03:57:42;;;;;;;4.45;3.30;;;;;;;7.09;58.79;101646.72;5089302;28;20016;-28
2022/05/06 04:00:09;;;;;;;4.80;3.20;;;;;;;7.06;58.87;101643.22;5081444;28;20476;-27
2022/05/06 04:02:36;;;;;;;4.35;3.92;;;;;;;7.04;59.03;101649.28;5096309;28;20024;-27
2022/05/06 04:05:02;;;;;;;3.40;3.00;;;;;;;7.03;58.89;101647.50;5082680;28;20035;-26
2022/05/06 04:07:27;;;;;;;5.15;4.22;;;;;;;7.01;59.23;101642.22;5087129;28;20459;-27
2022/05/06 04:09:52;;;;;;;3.78;3.35;;;;;;;6.99;59.24;101640.41;5084292;28;20070;-28
2022/05/06 04:12:18;;;;;;;3.90;3.60;;;;;;;6.98;59.03;101650.03;5086449;28;20051;-27
2022/05/06 04:14:43;;;;;;;5.32;3.58;;;;;;;6.97;59.19;101650.88;5087300;28;20534;-28
2022/05/06 04:17:08;;;;;;;4.65;3.70;;;;;;;6.95;58.86;101655.22;5085623;28;20121;-27
2022/05/06 04:19:34;;;;;;;4.20;3.67;;;;;;;6.93;59.25;101657.78;5085302;28;20543;-27
2022/05/06 04:24:43;;;;;;;4.47;4.05;;;;;;;6.90;59.69;101662.97;5080542;28;20447;-28
2022/05/06 04:27:08;;;;;;;4.30;3.90;;;;;;;6.88;59.48;101663.78;5082935;28;20036;-28
2022/05/06 04:29:34;;;;;;;5.72;4.18;;;;;;;6.87;59.58;101660.28;5083138;28;20052;-27
2022/05/06 04:32:00;;;;;;;4.35;3.95;;;;;;;6.88;59.85;101663.78;5086363;28;20078;-28
2022/05/06 04:34:25;;;;;;;6.18;3.42;;;;;;;6.88;59.49;101666.41;5082521;28;20055;-27
2022/05/06 04:36:50;;;;;;;4.63;3.97;;;;;;;6.88;59.54;101666.41;5076464;28;20120;-27
2022/05/06 04:39:16;;;;;;;3.97;3.35;;;;;;;6.88;59.54;101663.78;5079475;28;20274;-27
2022/05/06 04:41:42;;;;;;;5.78;3.63;;;;;;;6.88;59.95;101679.53;5079737;28;20111;-27
2022/05/06 04:44:08;;;;;;;6.57;4.82;;;;;;;6.89;59.38;101676.03;5079054;28;20027;-28
2022/05/06 04:46:33;;;;;;;3.88;3.47;;;;;;;6.90;60.03;101678.69;5098054;28;20036;-27
2022/05/06 04:48:58;;;;;;;3.95;3.60;;;;;;;6.90;59.81;101677.81;5083837;28;20024;-27
2022/05/06 04:51:23;;;;;;;4.18;3.65;;;;;;;6.92;59.69;101681.38;5082432;28;20086;-28
2022/05/06 04:53:52;;;;;;;5.07;3.63;;;;;;;6.91;59.71;101685.72;5082797;28;20492;-28
2022/05/06 04:56:17;;;;;;;4.13;3.47;;;;;;;6.93;60.11;101683.13;5081663;28;20024;-28
2022/05/06 04:58:42;;;;;;;3.75;3.45;;;;;;;6.96;60.41;101691.06;5085720;28;20020;-26
2022/05/06 05:01:07;;;;;;;6.28;3.75;;;;;;;6.98;59.89;101692.00;5082575;28;20393;-27
2022/05/06 05:03:33;;;;;;;4.40;3.95;;;;;;;7.00;59.96;101689.41;5084959;28;20127;-28
2022/05/06 05:05:59;;;;;;;4.40;4.00;;;;;;;7.01;59.90;101689.41;5085893;28;20091;-27
2022/05/06 05:08:24;;;;;;;4.30;3.60;;;;;;;7.04;60.56;101686.88;5081979;28;20129;-27
2022/05/06 05:10:50;;;;;;;3.67;3.38;;;;;;;7.07;60.07;101691.28;5081238;28;20036;-26
2022/05/06 05:13:15;;;;;;;4.65;4.25;;;;;;;7.11;61.25;101702.75;5085531;28;20028;-28
2022/05/06 05:15:41;;;;;;;4.90;4.15;;;;;;;7.15;61.02;101709.84;5078762;28;20559;-27
2022/05/06 05:18:07;;;;;;;4.57;4.18;;;;;;;7.18;61.22;101700.28;5079768;28;20556;-28
2022/05/06 05:20:32;;;;;;;4.75;4.30;;;;;;;7.22;61.28;101700.34;5080238;28;20125;-28
2022/05/06 05:22:58;;;;;;;5.15;4.05;;;;;;;7.27;61.42;101709.22;5080460;28;20486;-30
2022/05/06 05:25:23;;;;;;;4.38;3.97;;;;;;;7.31;61.77;101714.56;5084525;28;20384;-28
2022/05/06 05:27:48;;;;;;;5.75;4.55;;;;;;;7.36;62.10;101719.91;5084172;28;20439;-28
2022/05/06 05:30:14;;;;;;;5.65;4.38;;;;;;;7.41;62.63;101714.78;5085494;28;20452;-29
2022/05/06 05:32:39;;;;;;;4.53;4.13;;;;;;;7.48;62.66;101714.03;5086261;28;20111;-30
2022/05/06 05:35:05;;;;;;;4.50;4.10;;;;;;;7.52;62.37;101708.00;5079712;28;20031;-28
2022/05/06 05:37:30;;;;;;;6.60;4.53;;;;;;;7.58;62.71;101707.25;5081799;28;20387;-29
2022/05/06 05:39:55;;;;;;;4.38;3.85;;;;;;;7.66;62.10;101712.63;5081437;28;20032;-29
2022/05/06 05:42:22;;;;;;;6.63;4.15;;;;;;;7.72;61.70;101718.00;5098831;28;20110;-28
2022/05/06 05:50:15;;;;;;;6.63;4.80;;;;;;;7.95;62.49;101718.47;5084048;28;20100;-28
2022/05/06 05:52:40;;;;;;;5.10;4.70;;;;;;;8.02;62.71;101719.44;5084502;28;20037;-29
2022/05/06 05:55:06;;;;;;;6.05;5.45;;;;;;;8.09;62.80;101717.81;5081422;28;20032;-28
2022/05/06 05:57:31;;;;;;;5.78;4.93;;;;;;;8.18;62.50;101722.34;5084414;28;20460;-28
2022/05/06 05:59:57;;;;;;;6.47;4.63;;;;;;;8.25;63.17;101716.34;5084692;28;20072;-28
2022/05/06 06:02:22;;;;;;;7.57;4.93;;;;;;;8.34;62.93;101713.88;5085233;28;20016;-28
2022/05/06 06:04:48;;;;;;;4.95;4.45;;;;;;;8.41;62.38;101720.09;5083398;28;20517;-28
2022/05/06 06:07:14;;;;;;;5.78;4.53;;;;;;;8.51;62.42;101721.16;5081928;28;20028;-28
2022/05/06 06:09:39;;;;;;;5.00;4.50;;;;;;;8.58;62.83;101717.78;5083843;28;20024;-28
2022/05/06 06:12:05;;;;;;;5.13;4.63;;;;;;;8.68;62.90;101724.09;5079973;28;20039;-28
2022/05/06 06:14:30;;;;;;;6.00;4.82;;;;;;;8.77;62.50;101719.84;5101784;28;20392;-29
2022/05/06 06:16:56;;;;;;;6.68;4.90;;;;;;;8.89;63.75;101727.00;5082476;28;20031;-28
2022/05/06 06:19:21;;;;;;;6.18;5.25;;;;;;;8.97;63.59;101731.53;5085725;28;20024;-28
2022/05/06 06:21:47;;;;;;;5.90;4.40;;;;;;;9.08;63.88;101721.19;5080980;28;20093;-29
2022/05/06 06:24:12;;;;;;;6.20;5.60;;;;;;;9.21;64.83;101723.97;5081281;28;20020;-28
2022/05/06 06:26:37;;;;;;;5.85;5.25;;;;;;;9.30;64.62;101721.44;5082656;28;20031;-28
2022/05/06 06:29:03;;;;;;;7.30;5.00;;;;;;;9.37;63.54;101723.28;5083937;28;20044;-30
2022/05/06 06:31:31;;;;;;;6.82;5.25;;;;;;;9.54;65.41;101727.88;5081274;28;20028;-28
2022/05/06 06:33:57;;;;;;;6.13;5.53;;;;;;;9.66;65.46;101731.53;5080900;28;20124;-28
2022/05/06 06:36:23;;;;;;;6.25;5.43;;;;;;;9.78;65.83;101734.31;5084277;28;20066;-29
2022/05/06 06:38:49;;;;;;;6.80;4.97;;;;;;;9.91;66.20;101723.91;5095723;28;20268;-28
2022/05/06 06:41:14;;;;;;;7.55;6.03;;;;;;;10.05;66.65;101727.59;5082887;28;20027;-28
2022/05/06 06:43:39;;;;;;;6.50;5.85;;;;;;;10.18;66.77;101719.78;5081505;28;20033;-28
2022/05/06 06:46:05;;;;;;;8.35;6.78;;;;;;;10.31;66.98;101726.06;5085372;28;20031;-29
2022/05/06 06:48:30;;;;;;;7.25;6.55;;;;;;;10.47;67.37;101727.13;5082506;28;20031;-28
2022/05/06 06:50:56;;;;;;;7.47;6.10;;;;;;;10.60;67.77;101730.75;5079481;28;20036;-29
2022/05/06 06:53:21;;;;;;;6.68;5.72;;;;;;;10.75;67.76;101727.31;5082324;28;20089;-27
2022/05/06 06:55:47;;;;;;;7.97;5.78;;;;;;;10.85;66.92;101729.16;5078259;28;20380;-28
2022/05/06 06:58:12;;;;;;;7.03;5.65;;;;;;;11.00;66.87;101727.47;5086023;28;20016;-28
2022/05/06 07:00:38;;;;;;;7.47;5.78;;;;;;;11.11;66.33;101723.13;5086486;28;20028;-28
2022/05/06 07:03:03;;;;;;;6.47;5.55;;;;;;;11.24;66.17;101721.44;5080900;28;20035;-29
2022/05/06 07:05:29;;;;;;;6.40;5.40;;;;;;;11.40;66.52;101737.34;5084428;28;20024;-29
2022/05/06 07:13:22;;;;;;;6.03;5.22;;;;;;;11.87;65.90;101738.41;5085145;28;20093;-28
2022/05/06 07:15:47;;;;;;;6.78;6.00;;;;;;;12.04;66.63;101730.50;5085433;28;20480;-28
2022/05/06 07:18:13;;;;;;;5.88;5.20;;;;;;;12.19;66.28;101740.28;5080274;28;20016;-27
2022/05/06 07:20:38;;;;;;;6.53;5.28;;;;;;;12.31;65.76;101744.69;5084015;28;20089;-29
2022/05/06 07:23:06;;;;;;;6.22;4.75;;;;;;;12.48;65.89;101735.00;5082631;28;20789;-31
2022/05/06 07:25:32;;;;;;;5.30;4.50;;;;;;;12.62;66.05;101742.94;5079476;28;20036;-30
2022/05/06 07:27:57;;;;;;;5.65;4.97;;;;;;;12.79;66.73;101742.91;5076447;28;20025;-28
2022/05/06 07:30:22;;;;;;;6.45;4.28;;;;;;;12.99;67.10;101739.34;5081620;28;20044;-27
2022/05/06 07:32:48;;;;;;;4.95;4.50;;;;;;;13.16;66.87;101732.25;5081240;28;20032;-29
2022/05/06 07:35:13;;;;;;;5.78;4.90;;;;;;;13.35;67.47;101737.50;5083421;28;20036;-28
2022/05/06 07:37:38;;;;;;;5.32;4.32;;;;;;;13.50;67.22;101738.34;5067469;28;20024;-29
2022/05/06 07:40:04;;;;;;;5.13;4.07;;;;;;;13.67;66.90;101744.44;5085753;28;20020;-27
2022/05/06 07:42:31;;;;;;;5.47;4.47;;;;;;;13.83;66.70;101744.34;5084214;28;20090;-28
2022/05/06 07:45:00;;;;;;;7.28;4.30;;;;;;;13.91;64.34;101745.19;5086408;28;20020;-29
2022/05/06 07:47:25;;;;;;;5.60;4.38;;;;;;;14.10;65.97;101742.44;5082230;28;20036;-28
2022/05/06 07:49:51;;;;;;;5.95;4.57;;;;;;;14.27;66.36;101747.63;5082515;28;20403;-29
2022/05/06 07:52:16;;;;;;;4.13;3.72;;;;;;;14.44;66.29;101743.97;5085940;28;20412;-28
2022/05/06 07:54:41;;;;;;;5.30;4.13;;;;;;;14.61;66.51;101744.69;5081098;28;20033;-29
2022/05/06 07:57:07;;;;;;;4.85;4.45;;;;;;;14.78;66.50;101743.72;5082230;28;20036;-29
2022/05/06 07:59:32;;;;;;;6.13;4.15;;;;;;;14.96;66.54;101739.97;5069037;28;20035;-28
2022/05/06 08:04:47;;;;;;;5.07;3.83;;;;;;;15.25;65.71;101744.06;5084019;28;20104;-29
2022/05/06 08:07:13;;;;;;;6.97;4.70;;;;;;;15.46;66.52;101741.19;5087273;28;20048;-28
2022/05/06 08:09:38;;;;;;;4.80;4.05;;;;;;;15.61;66.49;101740.13;5088403;28;20499;-28
2022/05/06 08:12:04;;;;;;;5.97;4.22;;;;;;;15.74;66.53;101747.00;5097509;28;20040;-28
2022/05/06 08:14:29;;;;;;;4.93;4.20;;;;;;;15.91;66.11;101748.59;5085028;28;20027;-29
2022/05/06 08:16:55;;;;;;;4.78;4.10;;;;;;;16.06;66.21;101749.25;5086824;28;20441;-28
2022/05/06 08:19:20;;;;;;;4.03;3.72;;;;;;;16.26;66.65;101741.88;5084922;28;20101;-29
2022/05/06 08:21:46;;;;;;;5.75;3.95;;;;;;;16.43;66.37;101740.72;5083979;28;20047;-30
2022/05/06 08:24:12;;;;;;;3.60;3.08;;;;;;;16.60;66.09;101734.25;5084505;28;20490;-26
2022/05/06 08:26:37;;;;;;;5.60;3.30;;;;;;;16.71;66.28;101742.91;5080764;28;20487;-28
2022/05/06 08:29:03;;;;;;;4.30;4.00;;;;;;;16.84;65.66;101734.69;5085003;28;20027;-29
2022/05/06 08:31:28;;;;;;;8.23;3.65;;;;;;;17.03;65.54;101738.75;5080064;28;20056;-28
2022/05/06 08:33:54;;;;;;;3.60;3.30;;;;;;;17.23;65.47;101737.53;5085659;28;20024;-29
2022/05/06 08:36:20;;;;;;;4.88;3.60;;;;;;;17.38;65.65;101740.78;5083972;28;21153;-28
2022/05/06 08:38:45;;;;;;;4.32;3.50;;;;;;;17.43;65.05;101734.44;5081511;28;20047;-30
2022/05/06 08:41:12;;;;;;;6.82;3.78;;;;;;;17.59;64.82;101736.78;5087985;28;20035;-27
2022/05/06 08:43:37;;;;;;;4.53;3.08;;;;;;;17.73;64.24;101735.59;5086926;28;20072;-27
2022/05/06 08:51:33;;;;;;;4.03;3.30;;;;;;;18.17;63.98;101735.53;5084486;28;20051;-28
2022/05/06 08:53:58;;;;;;;3.95;3.55;;;;;;;18.28;63.23;101733.44;5081757;28;20527;-30
2022/05/06 08:56:23;;;;;;;3.90;3.47;;;;;;;18.39;62.89;101726.97;5082972;28;20246;-28
2022/05/06 08:58:49;;;;;;;3.55;3.25;;;;;;;18.50;62.39;101732.06;5088081;28;20054;-28
2022/05/06 09:01:16;;;;;;;2.67;2.47;;;;;;;18.64;63.03;101729.03;5084323;28;20031;-28
2022/05/06 09:03:47;;;;;;;3.45;3.13;;;;;;;18.79;63.15;101722.38;5086707;28;20047;-28
2022/05/06 09:06:22;;;;;;;3.25;2.95;;;;;;;18.95;63.65;101730.88;5087604;28;20032;-28
2022/05/06 09:08:49;;;;;;;3.72;3.25;;;;;;;19.07;63.66;101721.63;5083469;28;20035;-29
2022/05/06 09:11:17;;;;;;;3.45;3.15;;;;;;;19.23;63.16;101732.78;5085017;28;20487;-28
2022/05/06 09:14:00;;;;;;;4.60;3.47;;;;;;;19.29;60.66;101732.63;5081952;28;20437;-28
2022/05/06 09:16:39;;;;;;;3.63;3.00;;;;;;;19.43;60.96;101736.66;5085343;28;20031;-28
2022/05/06 09:19:25;;;;;;;5.20;3.42;;;;;;;19.52;59.09;101732.84;5085803;28;20460;-29
2022/05/06 09:22:03;;;;;;;3.67;3.35;;;;;;;19.59;55.61;101729.97;5085485;28;20107;-29
2022/05/06 09:24:29;;;;;;;7.85;3.30;;;;;;;19.69;56.60;101730.53;5084318;28;20677;-28
2022/05/06 09:27:05;;;;;;;4.65;3.35;;;;;;;19.82;60.69;101720.34;5084294;28;20032;-28
2022/05/06 09:29:47;;;;;;;4.22;3.17;;;;;;;19.91;58.33;101729.84;5081010;28;20399;-29
2022/05/06 09:32:26;;;;;;;3.28;2.88;;;;;;;19.97;56.80;101727.00;5081123;28;20030;-28
2022/05/06 09:35:04;;;;;;;3.22;2.88;;;;;;;20.10;59.13;101724.81;5082011;28;20021;-27
2022/05/06 09:37:47;;;;;;;5.05;3.22;;;;;;;20.19;59.15;101725.44;5079704;28;20388;-28
2022/05/06 09:40:19;;;;;;;3.47;3.17;;;;;;;20.32;59.77;101725.91;5085090;28;20039;-27
2022/05/06 09:42:46;;;;;;;4.20;2.88;;;;;;;20.39;57.73;101730.16;5082918;28;20056;-28
2022/05/06 09:45:13;;;;;;;3.38;3.08;;;;;;;20.49;56.63;101728.03;5083471;28;20062;-28
2022/05/06 09:47:40;;;;;;;3.47;3.17;;;;;;;20.59;56.42;101715.19;5085752;28;20034;-27
2022/05/06 09:50:07;;;;;;;3.75;2.90;;;;;;;20.72;57.63;101726.34;5088946;28;20024;-28
2022/05/06 09:52:33;;;;;;;3.83;3.38;;;;;;;20.79;55.99;101719.84;5084136;28;20060;-28
2022/05/06 09:55:00;;;;;;;4.30;3.15;;;;;;;20.91;57.15;101713.22;5084515;28;20051;-28
2022/05/06 09:57:25;;;;;;;3.95;3.00;;;;;;;20.99;55.79;101718.28;5084108;28;20031;-28
2022/05/06 09:59:51;;;;;;;3.50;3.20;;;;;;;21.09;56.40;101711.66;5086040;28;20020;-27
2022/05/06 10:02:17;;;;;;;3.28;3.08;;;;;;;21.21;55.43;101720.19;5085560;28;20111;-28
2022/05/06 10:04:43;;;;;;;3.05;2.70;;;;;;;21.34;56.65;101717.91;5081378;28;20032;-27
2022/05/06 10:07:14;;;;;;;5.32;3.42;;;;;;;21.41;55.79;101704.19;5081966;28;20373;-28
2022/05/06 10:09:47;;;;;;;3.15;2.75;;;;;;;21.54;55.65;101720.69;5085014;28;20025;-27
2022/05/06 10:12:14;;;;;;;3.25;2.95;;;;;;;21.61;54.73;101717.78;5090562;28;20429;-28
2022/05/06 10:14:41;;;;;;;4.03;3.08;;;;;;;21.72;54.66;101706.59;5085077;28;20077;-28
2022/05/06 10:17:07;;;;;;;3.35;3.05;;;;;;;21.79;52.30;101708.13;5089569;28;20016;-28
2022/05/06 10:19:33;;;;;;;4.18;3.78;;;;;;;21.89;53.33;101706.84;5092337;28;20047;-27
2022/05/06 10:21:58;;;;;;;5.53;2.73;;;;;;;22.02;54.92;101706.31;5088222;28;20399;-29
2022/05/06 10:24:23;;;;;;;3.83;3.42;;;;;;;22.10;53.14;101701.50;5087842;28;20043;-28
2022/05/06 10:26:50;;;;;;;4.30;3.50;;;;;;;22.15;51.04;101694.13;5084638;28;20039;-29
2022/05/06 10:32:51;;;;;;;3.90;3.38;;;;;;;22.36;49.43;101691.47;5084768;28;20111;-28
2022/05/06 10:35:17;;;;;;;3.55;2.95;;;;;;;22.42;47.68;101691.22;5085750;28;20016;-27
2022/05/06 10:37:44;;;;;;;3.38;2.85;;;;;;;22.47;46.97;101695.53;5084644;28;20027;-29
2022/05/06 10:40:22;;;;;;;4.30;3.90;;;;;;;22.55;47.14;101696.91;5088225;28;20028;-27
2022/05/06 10:42:47;;;;;;;3.22;2.97;;;;;;;22.60;48.07;101694.06;5085493;28;20024;-28
2022/05/06 10:45:33;;;;;;;3.10;2.78;;;;;;;22.68;47.57;101691.03;5086243;28;20043;-29
2022/05/06 10:48:00;;;;;;;3.28;2.97;;;;;;;22.72;47.12;101686.38;5086733;28;20827;-27
2022/05/06 10:50:29;;;;;;;5.70;3.40;;;;;;;22.77;46.40;101684.38;5086754;28;20383;-29
2022/05/06 10:53:00;;;;;;;4.78;2.75;;;;;;;22.83;46.54;101685.94;5099852;28;20110;-28
2022/05/06 10:55:25;;;;;;;4.03;2.63;;;;;;;22.85;45.57;101687.59;5086621;28;20024;-27
2022/05/06 10:57:59;;;;;;;3.05;2.53;;;;;;;22.89;45.86;101682.94;5082988;28;20073;-26
2022/05/06 11:00:27;;;;;;;3.78;2.80;;;;;;;22.92;45.33;101681.00;5085777;28;20042;-27
2022/05/06 11:02:52;;;;;;;2.83;2.40;;;;;;;22.99;45.63;101672.63;5085332;28;20035;-29
2022/05/06 11:05:20;;;;;;;2.65;2.42;;;;;;;23.01;45.33;101668.94;5089017;28;20027;-28
2022/05/06 11:07:48;;;;;;;2.70;2.50;;;;;;;23.07;46.03;101665.09;5087381;28;20085;-28
2022/05/06 11:10:14;;;;;;;3.25;2.40;;;;;;;23.13;46.12;101664.81;5101989;28;20381;-28
2022/05/06 11:12:45;;;;;;;4.47;2.67;;;;;;;23.13;45.40;101664.81;5082392;28;20032;-28
2022/05/06 11:15:16;;;;;;;2.70;2.47;;;;;;;23.20;45.43;101666.25;5084502;28;20099;-29
2022/05/06 11:17:42;;;;;;;2.88;2.10;;;;;;;23.26;45.31;101664.22;5086951;28;20020;-27
2022/05/06 11:20:23;;;;;;;4.00;2.53;;;;;;;23.30;44.98;101655.06;5084640;28;20020;-28
2022/05/06 11:22:54;;;;;;;3.65;2.13;;;;;;;23.33;44.14;101657.59;5084448;28;20020;-29
2022/05/06 11:25:22;;;;;;;3.53;2.30;;;;;;;23.42;44.67;101643.75;5086048;28;20031;-26
2022/05/06 11:27:48;;;;;;;2.60;2.38;;;;;;;23.50;45.17;101662.22;5083776;28;20087;-28
2022/05/06 11:30:17;;;;;;;3.08;2.80;;;;;;;23.54;44.90;101654.88;5084693;28;20122;-28
2022/05/06 11:32:49;;;;;;;2.30;2.10;;;;;;;23.64;46.43;101656.16;5084040;28;20016;-28
2022/05/06 11:35:20;;;;;;;1.90;1.80;;;;;;;23.71;46.49;101662.13;5082013;28;20496;-28
2022/05/06 11:37:46;;;;;;;2.55;2.30;;;;;;;23.75;44.78;101657.44;5086263;28;20041;-27
2022/05/06 11:42:51;;;;;;;2.65;2.20;;;;;;;23.82;44.48;101656.19;5089831;28;20028;-28
2022/05/06 11:48:09;;;;;;;2.47;1.88;;;;;;;23.95;43.27;101653.75;5090823;28;20537;-28
2022/05/06 11:50:35;;;;;;;6.15;2.17;;;;;;;24.01;43.12;101647.19;5087761;28;20073;-26
2022/05/06 11:53:05;;;;;;;1.95;1.77;;;;;;;24.07;43.19;101647.75;5086974;28;20027;-28
2022/05/06 11:55:31;;;;;;;1.65;1.55;;;;;;;24.18;43.64;101647.22;5087220;28;20613;-27
2022/05/06 11:57:59;;;;;;;2.95;1.63;;;;;;;24.26;44.20;101640.56;5090265;28;20064;-28
2022/05/06 12:00:25;;;;;;;2.22;1.73;;;;;;;24.31;43.48;101635.81;5088553;28;20032;-27
2022/05/06 12:02:51;;;;;;;2.03;1.92;;;;;;;24.38;43.19;101626.47;5085708;28;20039;-29
2022/05/06 12:05:18;;;;;;;1.50;1.40;;;;;;;24.46;42.78;101634.13;5091796;28;20032;-28
2022/05/06 12:07:48;;;;;;;4.35;1.67;;;;;;;24.51;42.61;101625.81;5091009;28;20020;-29